Adamsville, Rhode Island
Current Conditions -  °F | °C
As of 5:53 PM on Saturday 22 Nov 2014 (Local Time) from KUUU Reporting Station
Overcast Overcast  
Wind Chill: 36°   Ceiling: 7000
Heat Index: 43°   Visibility: 10mi
Dew Point: 28°   Wind: 13mph
Humidity: 56%   Direction: 210°SSW
Pressure: 30.19"   Gusts: 22mph
Location:  41.55°N, 71.13°W
Report Text: KUUU 222253Z AUTO 21011G19KT 10SM BKN070 OVC080 06/M02 A3019 RMK AO2 SLP223 T00611022
Loading
Personal Weather Stations






























Interactive Weather Map New forecast layout! Learn more

10-Day Weather Forecast

Advertisements
Track Severe Weather on mobile